createdAt,value
2017-10-07T00:00:03.500Z,8.9
2017-10-07T00:15:03.424Z,8.8
2017-10-07T00:30:04.540Z,8.7
2017-10-07T00:45:04.207Z,8.6
2017-10-07T01:00:03.011Z,8.6
2017-10-07T01:15:02.846Z,8.4
2017-10-07T01:30:02.853Z,8.4
2017-10-07T01:45:04.270Z,8.4
2017-10-07T02:00:03.740Z,8.4
2017-10-07T02:15:04.517Z,8.4
2017-10-07T02:30:04.561Z,8.4
2017-10-07T02:45:03.417Z,8.4
2017-10-07T03:00:03.657Z,8.4
2017-10-07T03:15:02.901Z,8.4
2017-10-07T03:30:02.893Z,8.4
2017-10-07T03:45:03.719Z,8.2
2017-10-07T04:00:04.550Z,8.2
2017-10-07T04:15:04.650Z,8.3
2017-10-07T04:30:03.617Z,8.3
2017-10-07T04:45:04.358Z,8.2
2017-10-07T05:00:04.016Z,8.3
2017-10-07T05:15:02.930Z,8.3
2017-10-07T05:30:02.935Z,8.2
2017-10-07T05:45:05.447Z,8.2
2017-10-07T06:00:04.162Z,8.2
2017-10-07T06:15:03.025Z,8.3
2017-10-07T06:30:03.024Z,8.6
2017-10-07T06:45:46.580Z,8.8
2017-10-07T07:00:03.212Z,9.2
2017-10-07T07:15:03.565Z,9.5
2017-10-07T07:30:03.594Z,9.4
2017-10-07T07:45:04.198Z,9.4
2017-10-07T08:00:03.129Z,9.8
2017-10-07T08:15:03.058Z,10.1
2017-10-07T08:30:03.015Z,10.3
2017-10-07T08:45:02.870Z,10.4
2017-10-07T09:00:04.103Z,10.6
2017-10-07T09:15:03.007Z,10.8
2017-10-07T09:30:02.946Z,11.3
2017-10-07T09:45:02.958Z,11.9
2017-10-07T10:00:02.687Z,12.1
2017-10-07T10:15:03.930Z,12.4
2017-10-07T10:30:03.174Z,12.3
2017-10-07T10:45:03.270Z,12.9
2017-10-07T11:00:04.757Z,12.4
2017-10-07T11:15:03.179Z,12.1
2017-10-07T11:30:03.246Z,12.6
2017-10-07T11:45:03.157Z,12.7
2017-10-07T12:00:03.802Z,12.5
2017-10-07T12:15:04.175Z,13.3
2017-10-07T12:30:03.839Z,12.3
2017-10-07T12:45:03.743Z,13.6
2017-10-07T13:00:04.659Z,12.5
2017-10-07T13:15:04.494Z,13.2
2017-10-07T13:30:03.813Z,13
2017-10-07T13:45:03.606Z,13.8
2017-10-07T14:00:04.177Z,14.1
2017-10-07T14:15:03.009Z,13.6
2017-10-07T14:30:02.833Z,14.1
2017-10-07T14:45:02.809Z,13.3
2017-10-07T15:00:03.755Z,12.9
2017-10-07T15:15:03.902Z,12.8
2017-10-07T15:30:02.818Z,12.5
2017-10-07T15:45:04.018Z,12.3
2017-10-07T16:00:02.847Z,12.1
2017-10-07T16:15:04.653Z,11.8
2017-10-07T16:30:04.249Z,11.6
2017-10-07T16:45:03.771Z,11.4
2017-10-07T17:00:04.441Z,11.3
2017-10-07T17:15:04.178Z,11.1
2017-10-07T17:30:03.102Z,10.7
2017-10-07T17:45:03.253Z,10.6
2017-10-07T18:00:02.974Z,10.7
2017-10-07T18:15:02.964Z,10.5
2017-10-07T18:30:02.795Z,10.4
2017-10-07T18:45:04.683Z,10.1
2017-10-07T19:00:04.021Z,10
2017-10-07T19:15:02.735Z,9.8
2017-10-07T19:30:03.568Z,9.8
2017-10-07T19:45:04.077Z,9.8
2017-10-07T20:00:02.918Z,9.6
2017-10-07T20:15:04.125Z,9.6
2017-10-07T20:30:02.883Z,9.4
2017-10-07T20:45:02.882Z,9.4
2017-10-07T21:00:03.988Z,9.5
2017-10-07T21:30:04.079Z,9.8
2017-10-07T21:45:03.031Z,9.8
2017-10-07T22:00:02.819Z,9.5
2017-10-07T22:15:04.140Z,9.4
2017-10-07T22:30:04.213Z,9.7
2017-10-07T22:45:03.393Z,9.8
2017-10-07T23:00:03.464Z,9.8
2017-10-07T23:15:03.387Z,9.8
2017-10-07T23:30:02.888Z,9.9
2017-10-07T23:45:03.006Z,9.9
